LiveATC.Net - Listen to live air traffic control over the Internet! Contact for advertising information

ICAO: KINT  IATA: INT   Airport: Smith Reynolds Airport
City: Winston Salem   State/Province: North Carolina
Country: United States   Continent: North America
KINT METAR Weather: KINT 091454Z VRB06G14KT 10SM CLR 22/16 A3012 RMK AO2 SLP190 T02170161 50002
KINT Flight Activity (FlightAware)
KINT Airport Info   (AirNav) (iFlightPlanner)
KINT VFR Sectional Chart   (iFlightPlanner) 
KINT IFR Low Chart   (iFlightPlanner) 
KINT Ground/Tower
Feed Status: UP   Listeners: 2
Listen right in your browser - requires Flash (in browser, requires Flash)
Click here to listen with your own player (launches your MP3 player)
KINT Ground/Tower Audio Archives
Winston-Salem Ground128.250
Winston-Salem Tower123.750


Unauthorized use prohibited. See Terms of Service

Find LiveATC Audio Streams

Airport/ARTCC Code

(e.g., 124.400, 128.75)
Site-wide search

Browse LiveATC Feeds
LiveATC Coverage Map
Top 50 LiveATC Feeds
Bad Weather Areas

Offer a LiveATC Feed
Press Inquiries

LiveATC on iPhone
LiveATC on Android

Windows Phone
Windows 8/10

LiveATC Mobile
(Mobile browser)

ATC Audio Archives
Interesting Recordings

LiveATC Forums

Home Page
Make a Donation
LiveATC Bookstore

Terms of Use
Privacy Policy

ATC/Radar Sites
U.S. ARTCC Freqs
Canadian Air Freqs


FAA Airport Status
Nat'l Airspace Status
Arrival Demand Charts

Server Software By:

Please make a donation to help us keep growing!